createdAt,value
2023-03-02T00:00:26.699Z,83.34
2023-03-02T00:03:12.051Z,83.72
2023-03-02T00:05:57.723Z,82.89
2023-03-02T00:08:42.393Z,83.48
2023-03-02T00:11:27.252Z,82.86
2023-03-02T00:14:12.770Z,83.64
2023-03-02T00:16:56.542Z,83.82
2023-03-02T00:19:40.386Z,84.74
2023-03-02T00:22:24.134Z,84.95
2023-03-02T00:25:08.969Z,84.65
2023-03-02T00:27:52.728Z,85.91
2023-03-02T00:30:39.208Z,86.15
2023-03-02T00:33:23.081Z,85.42
2023-03-02T00:36:07.815Z,85.55
2023-03-02T00:38:53.241Z,86.26
2023-03-02T00:41:37.107Z,86.09
2023-03-02T00:44:20.941Z,86.78
2023-03-02T00:47:06.221Z,86.58
2023-03-02T00:49:50.002Z,87.03
2023-03-02T00:52:34.966Z,86.68
2023-03-02T00:55:18.879Z,86.77
2023-03-02T00:58:02.852Z,86.11
2023-03-02T01:00:47.463Z,86.35
2023-03-02T01:03:32.986Z,87.14
2023-03-02T01:06:18.728Z,86.47
2023-03-02T01:09:02.498Z,87.08
2023-03-02T01:11:46.238Z,86.23
2023-03-02T01:14:30.543Z,85.08
2023-03-02T01:17:15.823Z,85.68
2023-03-02T01:20:01.134Z,85.28
2023-03-02T01:22:46.725Z,85.65
2023-03-02T01:25:30.495Z,85.26
2023-03-02T01:28:14.270Z,86.03
2023-03-02T01:30:58.012Z,86.03
2023-03-02T01:33:41.806Z,85.33
2023-03-02T01:36:27.126Z,85.56
2023-03-02T01:39:10.881Z,85.35
2023-03-02T01:41:55.350Z,85.15
2023-03-02T01:44:43.028Z,85.01
2023-03-02T01:47:32.810Z,83.74
2023-03-02T01:50:25.982Z,83.47
2023-03-02T01:53:18.112Z,83.46
2023-03-02T01:56:04.559Z,84.25
2023-03-02T01:58:52.956Z,83.53
2023-03-02T02:01:40.891Z,84.25
2023-03-02T02:04:28.925Z,84.44
2023-03-02T02:07:12.980Z,85.13
2023-03-02T02:09:58.860Z,84.40
2023-03-02T02:12:42.639Z,84.41
2023-03-02T02:15:46.346Z,83.86
2023-03-02T02:18:30.249Z,83.60
2023-03-02T02:21:14.684Z,84.01
2023-03-02T02:24:09.583Z,83.62
2023-03-02T02:26:57.255Z,83.15
2023-03-02T02:29:46.433Z,83.36
2023-03-02T02:32:35.672Z,83.38
2023-03-02T02:35:23.008Z,83.10
2023-03-02T02:38:10.067Z,82.98
2023-03-02T02:40:57.627Z,82.45
2023-03-02T02:43:48.101Z,83.39
2023-03-02T02:46:34.257Z,81.74
2023-03-02T02:49:31.737Z,81.85
2023-03-02T02:52:18.023Z,81.42
2023-03-02T02:55:02.117Z,82.68
2023-03-02T02:57:47.544Z,82.80
2023-03-02T03:00:32.884Z,83.83
2023-03-02T03:03:30.932Z,83.41
2023-03-02T03:06:23.392Z,83.63
2023-03-02T03:09:08.296Z,83.23
2023-03-02T03:11:59.480Z,82.98
2023-03-02T03:14:43.582Z,83.07
2023-03-02T03:17:29.938Z,83.16
2023-03-02T03:20:18.752Z,82.80
2023-03-02T03:23:02.644Z,82.08
2023-03-02T03:25:48.298Z,81.37
2023-03-02T03:28:32.185Z,81.75
2023-03-02T03:31:16.515Z,81.68
2023-03-02T03:34:02.860Z,80.93
2023-03-02T03:36:50.682Z,80.95
2023-03-02T03:39:35.295Z,81.20
2023-03-02T03:42:20.274Z,80.28
2023-03-02T03:45:04.289Z,80.56
2023-03-02T03:47:50.813Z,79.79
2023-03-02T03:50:36.586Z,79.92
2023-03-02T03:53:20.550Z,79.78
2023-03-02T03:56:05.009Z,79.31
2023-03-02T03:58:48.952Z,79.80
2023-03-02T04:01:35.247Z,79.61
2023-03-02T04:04:22.597Z,78.49
2023-03-02T04:07:08.583Z,79.08
2023-03-02T04:10:03.517Z,79.46
2023-03-02T04:12:50.400Z,79.16
2023-03-02T04:15:34.420Z,79.16
2023-03-02T04:18:18.150Z,78.92
2023-03-02T04:21:02.124Z,78.67
2023-03-02T04:23:47.346Z,78.19
2023-03-02T04:26:31.512Z,77.89
2023-03-02T04:29:15.782Z,77.69
2023-03-02T04:31:59.715Z,77.85
2023-03-02T04:34:44.911Z,77.43
2023-03-02T04:37:29.025Z,77.79
2023-03-02T04:40:15.348Z,77.58
2023-03-02T04:42:59.196Z,76.66
2023-03-02T04:45:42.994Z,76.79
2023-03-02T04:48:26.817Z,76.95
2023-03-02T04:51:18.236Z,77.09
2023-03-02T04:54:04.002Z,77.06
2023-03-02T04:56:49.647Z,77.25
2023-03-02T04:59:33.600Z,77.13
2023-03-02T05:02:17.699Z,77.62
2023-03-02T05:05:01.720Z,78.18
2023-03-02T05:07:47.460Z,77.61
2023-03-02T05:10:31.354Z,77.16
2023-03-02T05:13:16.727Z,77.80
2023-03-02T05:16:00.729Z,77.49
2023-03-02T05:18:44.584Z,77.50
2023-03-02T05:21:28.776Z,77.38
2023-03-02T05:24:13.441Z,77.45
2023-03-02T05:26:57.430Z,77.56
2023-03-02T05:29:42.580Z,76.50
2023-03-02T05:32:26.449Z,77.71
2023-03-02T05:35:10.877Z,77.84
2023-03-02T05:37:54.621Z,77.71
2023-03-02T05:40:38.670Z,77.45
2023-03-02T05:43:23.589Z,78.38
2023-03-02T05:46:08.892Z,78.88
2023-03-02T05:48:52.773Z,78.59
2023-03-02T05:51:36.697Z,78.28
2023-03-02T05:54:20.541Z,78.64
2023-03-02T05:57:04.397Z,79.73
2023-03-02T05:59:48.201Z,80.16
2023-03-02T06:02:33.670Z,80.43
2023-03-02T06:05:19.724Z,79.72
2023-03-02T06:08:04.034Z,80.48
2023-03-02T06:10:48.180Z,80.66
2023-03-02T06:13:31.952Z,80.89
2023-03-02T06:16:15.922Z,80.16
2023-03-02T06:19:01.149Z,80.06
2023-03-02T06:21:45.021Z,79.88
2023-03-02T06:24:28.884Z,80.41
2023-03-02T06:27:13.848Z,79.73
2023-03-02T06:29:57.753Z,78.70
2023-03-02T06:32:42.052Z,78.39
2023-03-02T06:35:27.723Z,77.29
2023-03-02T06:38:11.690Z,76.89
2023-03-02T06:40:55.742Z,74.89
2023-03-02T06:43:39.679Z,73.04
2023-03-02T06:46:23.635Z,72.46
2023-03-02T06:49:07.910Z,72.68
2023-03-02T06:51:53.113Z,71.44
2023-03-02T06:54:36.853Z,71.43
2023-03-02T06:57:20.825Z,71.71
2023-03-02T07:00:10.173Z,69.11
2023-03-02T07:02:54.438Z,68.54
2023-03-02T07:05:38.359Z,66.72
2023-03-02T07:08:23.661Z,66.88
2023-03-02T07:11:08.014Z,66.95
2023-03-02T07:13:52.264Z,67.18
2023-03-02T07:16:36.346Z,68.67
2023-03-02T07:19:20.361Z,68.35
2023-03-02T07:22:04.092Z,68.96
2023-03-02T07:24:49.343Z,67.20
2023-03-02T07:27:33.251Z,66.76
2023-03-02T07:30:21.125Z,72.00
2023-03-02T07:33:05.053Z,71.10
2023-03-02T07:35:49.948Z,70.49
2023-03-02T07:38:34.377Z,69.11
2023-03-02T07:41:19.782Z,71.48
2023-03-02T07:44:03.646Z,72.06
2023-03-02T07:46:47.629Z,69.94
2023-03-02T07:49:31.646Z,68.18
2023-03-02T07:52:15.404Z,67.20
2023-03-02T07:54:59.170Z,63.65
2023-03-02T07:57:44.887Z,66.56
2023-03-02T08:00:29.029Z,69.16
2023-03-02T08:03:12.965Z,67.52
2023-03-02T08:05:56.858Z,67.93
2023-03-02T08:08:41.029Z,67.86
2023-03-02T08:11:24.932Z,66.20
2023-03-02T08:14:10.355Z,68.18
2023-03-02T08:16:54.272Z,66.43
2023-03-02T08:19:38.125Z,68.17
2023-03-02T08:22:22.024Z,68.65
2023-03-02T08:25:07.381Z,69.50
2023-03-02T08:27:51.232Z,68.76
2023-03-02T08:30:36.403Z,68.41
2023-03-02T08:33:20.176Z,69.56
2023-03-02T08:36:05.936Z,70.02
2023-03-02T08:38:50.741Z,69.51
2023-03-02T08:41:35.340Z,69.84
2023-03-02T08:44:21.147Z,70.23
2023-03-02T08:47:06.857Z,71.38
2023-03-02T08:49:51.385Z,69.70
2023-03-02T08:52:35.824Z,68.15
2023-03-02T08:55:19.743Z,69.78
2023-03-02T08:58:03.652Z,70.58
2023-03-02T09:00:47.596Z,69.76
2023-03-02T09:03:32.867Z,66.86
2023-03-02T09:06:16.964Z,66.90
2023-03-02T09:09:01.428Z,67.24
2023-03-02T09:11:46.555Z,67.11
2023-03-02T09:14:30.476Z,66.63
2023-03-02T09:17:15.691Z,68.61
2023-03-02T09:20:00.971Z,68.72
2023-03-02T09:22:48.682Z,68.39
2023-03-02T09:25:32.582Z,68.22
2023-03-02T09:28:17.082Z,66.84
2023-03-02T09:31:02.748Z,68.27
2023-03-02T09:33:46.708Z,65.00
2023-03-02T09:36:32.854Z,64.09
2023-03-02T09:39:16.681Z,63.11
2023-03-02T09:42:19.911Z,62.64
2023-03-02T09:45:16.848Z,62.81
2023-03-02T09:48:12.357Z,64.95
2023-03-02T09:51:08.837Z,63.43
2023-03-02T09:54:01.819Z,63.02
2023-03-02T09:56:48.181Z,62.12
2023-03-02T09:59:39.652Z,60.25
2023-03-02T10:02:28.547Z,58.56
2023-03-02T10:05:17.609Z,58.11
2023-03-02T10:08:02.017Z,57.16
2023-03-02T10:10:50.523Z,56.02
2023-03-02T10:13:42.299Z,57.08
2023-03-02T10:16:33.018Z,56.95
2023-03-02T10:19:25.171Z,56.08
2023-03-02T10:22:17.411Z,56.03
2023-03-02T10:25:18.181Z,55.53
2023-03-02T10:28:17.385Z,56.14
2023-03-02T10:31:09.370Z,52.03
2023-03-02T10:33:53.432Z,53.22
2023-03-02T10:36:40.974Z,52.72
2023-03-02T10:39:25.167Z,51.67
2023-03-02T10:42:16.455Z,53.58
2023-03-02T10:45:10.032Z,52.87
2023-03-02T10:48:02.274Z,52.24
2023-03-02T10:50:46.262Z,53.12
2023-03-02T10:53:30.496Z,55.48
2023-03-02T10:56:22.040Z,55.33
2023-03-02T10:59:28.642Z,53.93
2023-03-02T11:02:23.683Z,54.67
2023-03-02T11:05:25.060Z,56.34
2023-03-02T11:08:11.954Z,55.12
2023-03-02T11:11:00.650Z,54.41
2023-03-02T11:13:45.837Z,54.79
2023-03-02T11:16:33.741Z,54.44
2023-03-02T11:19:27.049Z,56.24
2023-03-02T11:22:26.655Z,56.22
2023-03-02T11:25:17.759Z,57.48
2023-03-02T11:28:11.198Z,57.52
2023-03-02T11:30:59.092Z,57.01
2023-03-02T11:33:49.181Z,55.83
2023-03-02T11:36:45.795Z,57.78
2023-03-02T11:39:46.558Z,53.73
2023-03-02T11:42:41.217Z,55.35
2023-03-02T11:45:27.977Z,55.27
2023-03-02T11:48:23.421Z,55.37
2023-03-02T11:51:13.465Z,57.05
2023-03-02T11:54:02.901Z,57.21
2023-03-02T11:56:46.986Z,56.73
2023-03-02T11:59:33.510Z,58.29
2023-03-02T12:02:18.349Z,58.92
2023-03-02T12:05:05.099Z,59.10
2023-03-02T12:07:58.526Z,60.00
2023-03-02T12:10:45.647Z,59.82
2023-03-02T12:13:31.730Z,59.02
2023-03-02T12:16:23.714Z,59.68
2023-03-02T12:19:15.722Z,60.13
2023-03-02T12:22:02.330Z,59.24
2023-03-02T12:24:46.571Z,59.51
2023-03-02T12:27:37.299Z,59.73
2023-03-02T12:30:26.978Z,58.79
2023-03-02T12:33:21.463Z,59.13
2023-03-02T12:36:13.298Z,58.14
2023-03-02T12:39:16.832Z,60.37
2023-03-02T12:42:17.842Z,59.93
2023-03-02T12:45:15.991Z,60.70
2023-03-02T12:48:04.309Z,59.73
2023-03-02T12:50:49.436Z,61.06
2023-03-02T12:53:34.114Z,60.02
2023-03-02T12:56:25.398Z,59.22
2023-03-02T12:59:20.791Z,61.16
2023-03-02T13:02:18.338Z,60.00
2023-03-02T13:05:04.521Z,59.28
2023-03-02T13:07:57.261Z,58.12
2023-03-02T13:10:43.438Z,58.05
2023-03-02T13:13:29.811Z,59.40
2023-03-02T13:16:22.581Z,57.19
2023-03-02T13:19:16.758Z,59.26
2023-03-02T13:22:01.328Z,59.19
2023-03-02T13:24:48.373Z,59.55
2023-03-02T13:27:34.185Z,59.10
2023-03-02T13:30:25.389Z,59.57
2023-03-02T13:33:22.557Z,59.11
2023-03-02T13:36:08.807Z,59.53
2023-03-02T13:38:55.166Z,58.33
2023-03-02T13:41:40.792Z,58.00
2023-03-02T13:44:29.695Z,57.65
2023-03-02T13:47:24.054Z,56.79
2023-03-02T13:50:10.380Z,57.08
2023-03-02T13:52:57.891Z,56.25
2023-03-02T13:55:41.777Z,56.81
2023-03-02T13:58:26.696Z,57.22
2023-03-02T14:01:13.102Z,55.06
2023-03-02T14:03:57.472Z,58.23
2023-03-02T14:06:41.693Z,57.39
2023-03-02T14:09:27.852Z,55.09
2023-03-02T14:12:22.199Z,56.31
2023-03-02T14:15:07.222Z,57.08
2023-03-02T14:17:51.028Z,56.98
2023-03-02T14:20:34.778Z,57.60
2023-03-02T14:23:18.553Z,58.08
2023-03-02T14:26:18.362Z,59.85
2023-03-02T14:29:06.327Z,59.11
2023-03-02T14:31:50.330Z,58.83
2023-03-02T14:34:36.992Z,58.28
2023-03-02T14:37:26.047Z,59.36
2023-03-02T14:40:17.652Z,59.17
2023-03-02T14:43:02.927Z,59.44
2023-03-02T14:45:47.006Z,60.78
2023-03-02T14:48:30.829Z,60.44
2023-03-02T14:51:23.197Z,60.82
2023-03-02T14:54:09.659Z,59.86
2023-03-02T14:56:54.795Z,61.63
2023-03-02T14:59:40.475Z,61.48
2023-03-02T15:02:27.014Z,61.37
2023-03-02T15:05:11.235Z,61.53
2023-03-02T15:07:58.684Z,61.58
2023-03-02T15:10:43.771Z,61.46
2023-03-02T15:13:27.884Z,63.35
2023-03-02T15:16:13.900Z,62.50
2023-03-02T15:18:58.987Z,63.51
2023-03-02T15:21:45.561Z,62.97
2023-03-02T15:24:32.077Z,63.13
2023-03-02T15:27:17.252Z,65.12
2023-03-02T15:30:01.115Z,65.40
2023-03-02T15:32:46.393Z,65.00
2023-03-02T15:35:30.325Z,64.86
2023-03-02T15:38:14.219Z,64.58
2023-03-02T15:40:58.086Z,65.98
2023-03-02T15:43:42.247Z,65.19
2023-03-02T15:46:26.964Z,66.31
2023-03-02T15:49:12.353Z,65.63
2023-03-02T15:51:58.419Z,65.16
2023-03-02T15:54:42.433Z,65.07
2023-03-02T15:57:26.572Z,66.93
2023-03-02T16:00:13.606Z,67.11
2023-03-02T16:02:57.583Z,67.55
2023-03-02T16:05:43.377Z,67.56
2023-03-02T16:08:27.496Z,66.70
2023-03-02T16:11:12.577Z,68.08
2023-03-02T16:13:56.604Z,69.04
2023-03-02T16:16:40.502Z,69.59
2023-03-02T16:19:24.345Z,70.12
2023-03-02T16:22:09.621Z,70.68
2023-03-02T16:24:53.418Z,71.98
2023-03-02T16:27:37.264Z,70.64
2023-03-02T16:30:23.277Z,71.16
2023-03-02T16:33:09.973Z,72.55
2023-03-02T16:35:53.809Z,72.82
2023-03-02T16:38:39.790Z,73.26
2023-03-02T16:41:24.941Z,73.09
2023-03-02T16:44:08.912Z,73.82
2023-03-02T16:46:54.059Z,73.62
2023-03-02T16:49:39.090Z,74.38
2023-03-02T16:52:23.041Z,73.57
2023-03-02T16:55:13.126Z,74.30
2023-03-02T16:57:56.992Z,73.49
2023-03-02T17:00:42.641Z,75.00
2023-03-02T17:03:26.570Z,74.10
2023-03-02T17:06:12.209Z,74.66
2023-03-02T17:08:56.032Z,74.64
2023-03-02T17:11:41.530Z,75.53
2023-03-02T17:14:25.484Z,75.64
2023-03-02T17:17:09.698Z,75.28
2023-03-02T17:19:53.508Z,76.39
2023-03-02T17:22:37.466Z,76.62
2023-03-02T17:25:22.192Z,76.41
2023-03-02T17:28:07.721Z,76.11
2023-03-02T17:30:51.687Z,76.73
2023-03-02T17:33:35.697Z,77.70
2023-03-02T17:36:19.494Z,76.92
2023-03-02T17:39:03.411Z,76.96
2023-03-02T17:41:47.408Z,78.12
2023-03-02T17:44:34.738Z,78.16
2023-03-02T17:47:19.233Z,77.25
2023-03-02T17:50:05.680Z,78.16
2023-03-02T17:52:49.831Z,78.08
2023-03-02T17:55:34.556Z,77.90
2023-03-02T17:58:18.902Z,77.76
2023-03-02T18:01:04.581Z,77.15
2023-03-02T18:03:48.704Z,77.83
2023-03-02T18:06:32.564Z,77.93
2023-03-02T18:09:16.504Z,77.93
2023-03-02T18:12:01.218Z,78.54
2023-03-02T18:14:45.169Z,78.43
2023-03-02T18:17:30.329Z,79.01
2023-03-02T18:20:14.845Z,79.73
2023-03-02T18:22:58.875Z,79.77
2023-03-02T18:25:42.775Z,80.63
2023-03-02T18:28:26.650Z,80.28
2023-03-02T18:31:11.409Z,80.52
2023-03-02T18:33:56.569Z,81.03
2023-03-02T18:36:40.372Z,80.53
2023-03-02T18:39:24.135Z,81.21
2023-03-02T18:42:09.507Z,81.92
2023-03-02T18:44:54.467Z,82.18
2023-03-02T18:47:38.450Z,82.19
2023-03-02T18:50:24.082Z,82.02
2023-03-02T18:53:08.705Z,82.32
2023-03-02T18:55:55.844Z,81.59
2023-03-02T18:58:40.186Z,82.36
2023-03-02T19:01:24.030Z,81.77
2023-03-02T19:04:08.069Z,82.23
2023-03-02T19:06:53.769Z,82.19
2023-03-02T19:09:37.648Z,82.52
2023-03-02T19:12:21.677Z,83.39
2023-03-02T19:15:06.625Z,83.71
2023-03-02T19:17:52.090Z,83.86
2023-03-02T19:20:36.367Z,83.94
2023-03-02T19:23:21.814Z,84.40
2023-03-02T19:26:06.081Z,84.38
2023-03-02T19:28:50.284Z,84.49
2023-03-02T19:31:34.349Z,84.56
2023-03-02T19:34:18.716Z,85.04
2023-03-02T19:37:05.609Z,85.01
2023-03-02T19:39:51.128Z,84.92
2023-03-02T19:42:36.294Z,85.75
2023-03-02T19:45:23.379Z,86.30
2023-03-02T19:48:09.298Z,85.24
2023-03-02T19:50:53.663Z,85.65
2023-03-02T19:53:39.263Z,86.33
2023-03-02T19:56:30.102Z,85.94
2023-03-02T19:59:14.065Z,86.51
2023-03-02T20:01:59.592Z,86.65
2023-03-02T20:04:45.184Z,86.19
2023-03-02T20:07:29.499Z,86.33
2023-03-02T20:10:26.146Z,86.77
2023-03-02T20:13:12.247Z,85.71
2023-03-02T20:15:56.342Z,86.39
2023-03-02T20:18:41.620Z,86.45
2023-03-02T20:21:26.888Z,86.88
2023-03-02T20:24:11.284Z,86.21
2023-03-02T20:26:55.481Z,86.04
2023-03-02T20:29:43.336Z,86.64
2023-03-02T20:32:27.353Z,87.27
2023-03-02T20:35:13.174Z,87.24
2023-03-02T20:37:58.841Z,86.08
2023-03-02T20:40:43.267Z,86.54
2023-03-02T20:43:27.799Z,87.36
2023-03-02T20:46:18.540Z,87.41
2023-03-02T20:49:02.692Z,87.44
2023-03-02T20:51:52.907Z,87.38
2023-03-02T20:54:40.231Z,86.75
2023-03-02T20:57:24.451Z,86.92
2023-03-02T21:00:11.929Z,87.01
2023-03-02T21:02:59.414Z,87.04
2023-03-02T21:05:44.081Z,86.45
2023-03-02T21:08:28.496Z,86.88
2023-03-02T21:11:15.915Z,87.29
2023-03-02T21:14:02.268Z,86.80
2023-03-02T21:16:46.718Z,86.12
2023-03-02T21:19:34.232Z,86.80
2023-03-02T21:22:20.781Z,86.09
2023-03-02T21:25:07.406Z,86.83
2023-03-02T21:27:51.444Z,86.25
2023-03-02T21:30:35.757Z,85.64
2023-03-02T21:33:19.627Z,85.79
2023-03-02T21:36:05.242Z,86.04
2023-03-02T21:38:49.148Z,86.54
2023-03-02T21:41:33.709Z,86.34
2023-03-02T21:44:17.963Z,85.98
2023-03-02T21:47:01.822Z,85.86
2023-03-02T21:49:45.632Z,87.42
2023-03-02T21:52:30.944Z,86.55
2023-03-02T21:55:15.726Z,86.81
2023-03-02T21:57:59.936Z,86.24
2023-03-02T22:00:45.583Z,85.88
2023-03-02T22:03:29.408Z,86.12
2023-03-02T22:06:18.437Z,85.97
2023-03-02T22:09:04.084Z,86.44
2023-03-02T22:11:48.685Z,85.40
2023-03-02T22:14:32.495Z,86.29
2023-03-02T22:17:18.675Z,86.22
2023-03-02T22:20:02.375Z,85.43
2023-03-02T22:22:47.335Z,85.79
2023-03-02T22:25:32.490Z,86.17
2023-03-02T22:28:19.075Z,85.90
2023-03-02T22:31:03.255Z,86.23
2023-03-02T22:33:47.201Z,85.37
2023-03-02T22:36:31.018Z,85.64
2023-03-02T22:39:18.584Z,85.25
2023-03-02T22:42:12.693Z,85.48
2023-03-02T22:45:02.775Z,85.49
2023-03-02T22:47:49.206Z,85.46
2023-03-02T22:50:32.992Z,85.67
2023-03-02T22:53:29.169Z,85.25
2023-03-02T22:56:27.145Z,84.72
2023-03-02T22:59:21.404Z,84.72
2023-03-02T23:02:14.261Z,85.08
2023-03-02T23:04:58.019Z,84.76
2023-03-02T23:07:41.809Z,85.03
2023-03-02T23:10:25.874Z,85.01
2023-03-02T23:13:09.956Z,85.07
2023-03-02T23:15:56.254Z,84.70
2023-03-02T23:18:40.671Z,84.35
2023-03-02T23:21:28.253Z,84.26
2023-03-02T23:24:12.468Z,84.67
2023-03-02T23:26:56.250Z,84.55
2023-03-02T23:29:40.385Z,84.24
2023-03-02T23:32:25.651Z,83.78
2023-03-02T23:35:10.233Z,83.71
2023-03-02T23:37:53.945Z,83.90
2023-03-02T23:40:37.725Z,83.11
2023-03-02T23:43:21.741Z,83.08
2023-03-02T23:46:06.218Z,82.26
2023-03-02T23:48:51.781Z,82.63
2023-03-02T23:51:35.514Z,82.79
2023-03-02T23:54:19.364Z,83.38
2023-03-02T23:57:03.200Z,82.65
2023-03-02T23:59:46.995Z,82.59
